Latest Weather Observations for Territory Grape Farm

IDD60801

Issued at 3:35 pm CST Saturday 2 August 2014 (issued every 30 minutes, with the page automatically refreshed every 10 minutes)

About weather observations | Map of weather stations | Latest weather observations for NT | Other Formats
Station Details ID: 015643 Name: TERRITORY GRAPE FARM Lat: -22.45 Lon: 133.64 Height: 565.6 m
Data from the previous 72 hours. | See also: Recent months at Territory Grape Farm
Date/Time
CST
Temp
°C
App
Temp
°C
Dew
Point
Rel
Hum
%
Delta-T
°C
Wind Press
QNH
hPa
Press
MSL
hPa
Rain
since 9 am
mm
Dir
 
Spd
km/h
Gust
km/h
Spd
kts
Gust
kts
02/03:30pm 19.8 14.5 -0.8 25 9.2 ESE 17 24 9 13 1022.3 1021.0 0.0
02/03:00pm 19.3 14.3 -1.2 25 9.0 ESE 15 26 8 14 1022.3 1021.0 0.0
02/02:30pm 18.9 13.5 -1.5 25 8.9 ESE 17 22 9 12 1022.6 1021.3 0.0
02/02:00pm 18.8 13.4 -1.1 26 8.8 ESE 17 24 9 13 1023.0 - 0.0
02/01:30pm 18.2 12.5 -1.1 27 8.4 E 19 33 10 18 1023.5 1022.3 0.0
02/01:00pm 17.7 12.0 -1.0 28 8.2 E 19 28 10 15 1024.2 - 0.0
02/12:30pm 17.3 11.0 -0.9 29 7.9 E 22 32 12 17 1024.4 1023.2 0.0
02/12:00pm 16.4 10.5 -0.8 31 7.4 E 20 32 11 17 1025.0 1023.8 0.0
02/11:30am 15.6 9.4 -0.6 33 7.0 ESE 22 32 12 17 1025.5 1024.3 0.0
02/11:00am 14.4 8.2 -0.5 36 6.4 E 22 32 12 17 1026.2 - 0.0
02/10:30am 13.4 7.5 -0.6 38 5.9 E 20 32 11 17 1026.6 1025.4 0.0
02/10:00am 12.7 6.6 0.1 42 5.4 ESE 22 33 12 18 1026.7 - 0.0
02/09:30am 11.5 5.0 0.0 45 4.8 E 24 32 13 17 1026.4 1025.2 0.0
02/09:00am 10.4 3.5 0.2 49 4.3 ESE 26 33 14 18 1026.2 1025.0 0.0
02/08:30am 8.9 4.1 0.4 55 3.5 E 15 20 8 11 1025.9 1024.7 0.0
02/08:00am 8.2 4.2 0.4 58 3.2 E 11 17 6 9 1025.7 - 0.0
02/07:30am 7.4 3.0 0.2 60 2.9 ESE 13 19 7 10 1025.1 1023.9 0.0
02/07:00am 7.5 2.7 0.5 61 2.9 ESE 15 22 8 12 1024.8 - 0.0
02/06:30am 6.5 2.8 0.0 63 2.6 E 9 11 5 6 1024.7 1023.5 0.0
02/06:00am 7.4 3.7 -0.1 59 3.0 E 9 13 5 7 1024.6 1023.4 0.0
02/05:30am 8.3 3.9 0.3 57 3.3 ESE 13 17 7 9 1024.2 1022.9 0.0
02/05:00am 8.7 4.3 0.2 55 3.5 ESE 13 17 7 9 1024.0 - 0.0
02/04:30am 9.2 4.0 0.4 54 3.6 ESE 17 22 9 12 1024.0 1022.7 0.0
02/04:00am 9.4 4.2 0.1 52 3.9 ESE 17 24 9 13 1023.9 - 0.0
02/03:30am 9.8 4.3 0.4 52 3.9 SE 19 24 10 13 1024.0 1022.7 0.0
02/03:00am 9.8 4.7 0.7 53 3.8 SE 17 24 9 13 1024.1 1022.8 0.0
02/02:30am 10.0 5.3 1.1 54 3.8 ESE 15 19 8 10 1024.3 1023.1 0.0
02/02:00am 10.2 5.6 1.3 54 3.8 ESE 15 17 8 9 1024.6 - 0.0
02/01:30am 10.6 6.1 1.9 55 3.8 ESE 15 19 8 10 1024.7 1023.5 0.0
02/01:00am 11.0 6.1 2.3 55 3.9 ESE 17 20 9 11 1024.8 - 0.0
02/12:30am 11.4 7.0 2.7 55 3.9 SE 15 20 8 11 1025.0 1023.8 0.0
02/12:00am 11.8 7.0 2.8 54 4.0 ESE 17 20 9 11 1025.1 1023.9 0.0
 
Date/Time
CST
Temp
°C
App
Temp
°C
Dew
Point
Rel
Hum
%
Delta-T
°C
Wind Press
QNH
hPa
Press
MSL
hPa
Rain
since 9 am
mm
Dir
 
Spd
km/h
Gust
km/h
Spd
kts
Gust
kts
01/11:30pm 12.3 7.6 3.3 54 4.1 ESE 17 24 9 13 1025.1 1023.9 0.0
01/11:00pm 12.4 8.4 2.8 52 4.4 ESE 13 17 7 9 1025.0 - 0.0
01/10:30pm 13.3 8.6 3.1 50 4.7 SE 17 22 9 12 1025.0 1023.8 0.0
01/10:00pm 13.7 9.0 3.2 49 4.9 SE 17 22 9 12 1024.6 - 0.0
01/09:30pm 14.1 9.0 3.3 48 5.0 SE 19 26 10 14 1024.3 1023.1 0.0
01/09:00pm 14.9 9.9 3.4 46 5.4 SE 19 26 10 14 1024.3 1023.1 0.0
01/08:30pm 15.5 9.9 3.3 44 5.7 SE 22 30 12 16 1023.8 1022.5 0.0
01/08:00pm 16.2 10.6 3.3 42 6.1 SE 22 28 12 15 1023.3 - 0.0
01/07:30pm 16.9 11.8 3.2 40 6.5 SE 19 22 10 12 1022.7 1021.4 0.0
01/07:00pm 18.0 12.8 3.5 38 7.0 SE 20 26 11 14 1022.0 - 0.0
01/06:30pm 18.9 13.2 3.1 35 7.6 SE 22 28 12 15 1021.3 1020.1 0.0
01/06:00pm 20.3 15.0 3.1 32 8.3 SE 20 26 11 14 1020.7 1019.4 0.0
01/05:30pm 21.5 15.8 2.7 29 9.1 ESE 22 30 12 16 1020.4 1019.1 0.0
01/05:00pm 22.2 16.9 2.8 28 9.5 SE 20 30 11 16 1020.3 - 0.0
01/04:30pm 22.9 17.2 2.9 27 9.8 SE 22 32 12 17 1020.1 1018.8 0.0
01/04:00pm 23.2 17.8 2.7 26 10.1 SE 20 28 11 15 1019.9 - 0.0
01/03:30pm 22.8 17.7 2.8 27 9.8 SE 19 30 10 16 1020.1 1018.8 0.0
01/03:00pm 23.0 17.7 3.0 27 9.8 ESE 20 32 11 17 1020.3 1019.0 0.0
01/02:30pm 23.1 17.4 2.6 26 10.0 SE 22 28 12 15 1020.6 1019.3 0.0
01/02:00pm 22.9 17.5 2.4 26 10.0 SE 20 35 11 19 1020.9 - 0.0
01/01:30pm 22.9 17.5 2.4 26 10.0 ESE 20 32 11 17 1021.3 1020.1 0.0
01/01:00pm 21.9 16.6 1.6 26 9.7 ESE 19 28 10 15 1021.7 - 0.0
01/12:30pm 21.6 16.6 1.3 26 9.6 SE 17 24 9 13 1022.2 1020.9 0.0
01/12:00pm 21.5 15.6 1.7 27 9.4 E 22 35 12 19 1022.5 1021.2 0.0
01/11:30am 21.1 15.2 1.9 28 9.1 ESE 22 33 12 18 1022.8 1021.6 0.0
01/11:00am 20.1 13.8 1.5 29 8.7 SE 24 35 13 19 1023.2 - 0.0
01/10:30am 19.5 13.3 1.9 31 8.3 ESE 24 33 13 18 1023.2 1022.0 0.0
01/10:00am 18.6 10.8 1.6 32 7.9 SE 32 43 17 23 1023.0 - 0.0
01/09:30am 17.9 10.5 1.8 34 7.4 SE 30 37 16 20 1022.7 1021.4 0.0
01/09:00am 16.8 10.8 1.3 35 7.0 SE 22 32 12 17 1022.6 1021.9 0.0
01/08:30am 15.1 9.4 0.5 37 6.4 SE 20 28 11 15 1022.4 1021.6 0.0
01/08:00am 13.0 8.5 -0.3 40 5.7 SSE 13 19 7 10 1022.0 - 0.0
01/07:30am 11.9 7.4 -0.3 43 5.1 SSE 13 15 7 8 1021.6 1020.9 0.0
01/07:00am 12.1 8.0 -0.4 42 5.3 S 11 17 6 9 1020.9 - 0.0
01/06:30am 12.9 8.4 -0.4 40 5.6 S 13 17 7 9 1020.6 1019.8 0.0
01/06:00am 12.7 8.6 0.1 42 5.4 S 11 17 6 9 1019.9 1019.2 0.0
01/05:30am 11.3 7.2 -0.2 45 4.8 S 11 17 6 9 1019.7 1019.0 0.0
01/05:00am 10.7 6.9 -0.4 46 4.6 S 9 11 5 6 1019.3 - 0.0
01/04:30am 10.7 7.3 -0.4 46 4.6 S 7 11 4 6 1019.1 1018.3 0.0
01/04:00am 10.9 7.6 -0.2 46 4.6 S 7 11 4 6 1018.9 - 0.0
01/03:30am 10.3 7.1 -0.8 46 4.5 SSW 6 7 3 4 1018.7 1017.9 0.0
01/03:00am 11.6 8.3 -1.2 41 5.3 S 6 9 3 5 1018.8 1018.0 0.0
01/02:30am 12.9 9.1 -1.1 38 5.8 S 9 13 5 7 1019.0 1018.2 0.0
01/02:00am 13.5 9.3 -0.9 37 6.1 S 11 15 6 8 1019.0 - 0.0
01/01:30am 12.7 8.2 -0.5 40 5.6 SSW 13 17 7 9 1019.2 1018.4 0.0
01/01:00am 11.7 7.9 -1.1 41 5.3 SSW 9 11 5 6 1019.2 - 0.0
01/12:30am 13.1 9.8 0.2 41 5.5 SSW 7 11 4 6 1019.1 1018.3 0.0
01/12:00am 11.5 8.1 -0.3 44 4.9 SSW 7 7 4 4 1019.0 1018.2 0.0
 
Date/Time
CST
Temp
°C
App
Temp
°C
Dew
Point
Rel
Hum
%
Delta-T
°C
Wind Press
QNH
hPa
Press
MSL
hPa
Rain
since 9 am
mm
Dir
 
Spd
km/h
Gust
km/h
Spd
kts
Gust
kts
31/11:30pm 11.5 8.7 -0.3 44 4.9 SSW 4 6 2 3 1019.2 1018.4 0.0
31/11:00pm 12.8 9.6 -0.8 39 5.7 S 6 7 3 4 1019.2 - 0.0
31/10:30pm 13.0 9.8 -0.3 40 5.6 S 6 7 3 4 1019.3 1018.5 0.0
31/10:00pm 13.9 11.0 -1.3 35 6.4 S 4 7 2 4 1019.3 - 0.0
31/09:30pm 17.1 13.6 -1.1 29 7.9 S 7 11 4 6 1019.2 1018.4 0.0
31/09:00pm 17.6 14.1 -1.1 28 8.1 S 7 9 4 5 1019.0 1018.2 0.0
31/08:30pm 17.7 13.9 -1.0 28 8.2 SSW 9 11 5 6 1018.9 1018.1 0.0
31/08:00pm 18.3 14.5 -1.0 27 8.5 SSW 9 11 5 6 1018.5 - 0.0
31/07:30pm 18.8 15.3 -1.6 25 8.9 SSW 7 9 4 5 1018.3 1017.5 0.0
31/07:00pm 20.5 16.6 -1.3 23 9.7 S 9 11 5 6 1017.8 - 0.0
31/06:30pm 21.5 18.0 -1.7 21 10.3 SSW 7 9 4 5 1017.5 1016.7 0.0
31/06:00pm 24.2 20.2 -2.4 17 12.0 SW 9 13 5 7 1017.4 1016.6 0.0
31/05:30pm 25.5 21.1 -2.1 16 12.6 SW 11 15 6 8 1017.2 1016.4 0.0
31/05:00pm 26.3 21.9 -2.4 15 13.1 WSW 11 19 6 10 1017.1 - 0.0
31/04:30pm 26.6 21.5 -2.1 15 13.2 SW 15 24 8 13 1016.8 1016.0 0.0
31/04:00pm 26.6 21.7 -3.1 14 13.5 WSW 13 24 7 13 1016.9 - 0.0
31/03:30pm 26.4 21.6 -2.3 15 13.2 SW 13 26 7 14 1017.1 1016.3 0.0
31/03:00pm 26.5 22.0 -3.1 14 13.4 SW 11 19 6 10 1017.5 1016.7 0.0
31/02:30pm 26.5 22.0 -3.1 14 13.4 W 11 22 6 12 1017.9 1017.2 0.0
31/02:00pm 26.2 22.8 -2.4 15 13.1 WNW 6 11 3 6 1018.5 - 0.0
31/01:30pm 25.3 21.9 -2.3 16 12.5 S 6 11 3 6 1019.0 1018.2 0.0
31/01:00pm 25.2 21.2 -2.4 16 12.5 WNW 9 20 5 11 1019.4 - 0.0
31/12:30pm 25.3 21.2 -3.2 15 12.7 NW 9 20 5 11 1019.8 1019.1 0.0
31/12:00pm 24.8 20.5 -4.5 14 12.7 NW 9 17 5 9 1020.5 1019.7 0.0
31/11:30am 23.9 19.7 -4.3 15 12.2 N 9 19 5 10 1021.0 1020.3 0.0
31/11:00am 22.3 18.0 -4.7 16 11.4 N 9 15 5 8 1021.5 - 0.0
31/10:30am 21.6 17.4 -3.7 18 10.8 N 9 17 5 9 1021.7 1021.0 0.0
31/10:00am 19.7 15.1 -3.9 20 9.9 NNE 11 17 6 9 1021.7 - 0.0
31/09:30am 17.9 14.3 -3.5 23 8.9 NNE 6 9 3 5 1021.7 1021.0 0.0
31/09:00am 15.5 13.2 -2.4 29 7.4 CALM 0 4 0 2 1021.6 1020.9 0.0
31/08:30am 12.4 10.2 -1.9 37 5.8 CALM 0 2 0 1 1021.4 1020.7 0.0
31/08:00am 7.5 4.6 -0.9 55 3.3 SW 4 6 2 3 1021.3 - 0.0
31/07:30am 4.7 1.7 -2.2 61 2.6 SW 4 4 2 2 1021.0 1020.3 0.0
31/07:00am 4.5 2.2 -2.4 61 2.6 CALM 0 0 0 0 1020.9 - 0.0
31/06:30am 5.3 2.2 -2.5 57 2.9 SW 4 6 2 3 1020.8 1020.0 0.0
31/06:00am 5.9 2.4 -2.7 54 3.2 SW 6 7 3 4 1020.5 1019.7 0.0
31/05:30am 5.9 2.4 -2.7 54 3.2 SW 6 7 3 4 1020.2 1019.4 0.0
31/05:00am 5.8 2.7 -2.8 54 3.2 SW 4 6 2 3 1020.2 - 0.0
31/04:30am 6.5 3.4 -2.6 52 3.4 SW 4 6 2 3 1020.2 1019.4 0.0
31/04:00am 6.5 3.0 -2.9 51 3.5 SW 6 6 3 3 1020.1 - 0.0
31/03:30am 7.3 3.8 -3.2 47 3.9 SSW 6 7 3 4 1020.1 1019.3 0.0
31/03:00am 7.8 4.1 -3.1 46 4.1 SSW 7 7 4 4 1020.2 1019.4 0.0
31/02:30am 7.5 3.9 -3.4 46 4.1 SW 6 7 3 4 1020.3 1019.5 0.0
31/02:00am 8.4 4.8 -3.4 43 4.5 SSW 6 7 3 4 1020.4 - 0.0
31/01:30am 9.8 6.2 -3.8 38 5.2 S 6 7 3 4 1020.5 1019.7 0.0
31/01:00am 10.9 7.3 -3.9 35 5.7 SSE 6 7 3 4 1020.5 - 0.0
31/12:30am 12.4 8.3 -3.4 33 6.2 SSE 9 13 5 7 1020.6 1019.8 0.0
31/12:00am 11.6 7.0 -3.7 34 5.9 SE 11 11 6 6 1020.6 1019.8 0.0
 
Date/Time
CST
Temp
°C
App
Temp
°C
Dew
Point
Rel
Hum
%
Delta-T
°C
Wind Press
QNH
hPa
Press
MSL
hPa
Rain
since 9 am
mm
Dir
 
Spd
km/h
Gust
km/h
Spd
kts
Gust
kts
30/11:30pm 11.8 7.7 -3.1 35 5.9 SE 9 11 5 6 1020.7 1019.9 0.0
30/11:00pm 12.5 8.8 -2.9 34 6.2 SE 7 9 4 5 1020.8 - 0.0
30/10:30pm 10.3 6.8 -2.7 40 5.1 ESE 6 6 3 3 1020.8 1020.0 0.0
30/10:00pm 10.8 7.7 -2.9 38 5.4 ESE 4 4 2 2 1020.8 - 0.0
30/09:30pm 11.7 8.6 -2.9 36 5.8 E 4 6 2 3 1020.8 1020.0 0.0
30/09:00pm 12.6 8.9 -4.1 31 6.5 E 6 6 3 3 1020.7 1019.9 0.0
30/08:30pm 14.6 11.1 -2.8 30 7.1 ENE 6 7 3 4 1020.6 1019.8 0.0
30/08:00pm 16.1 12.2 -5.0 23 8.4 ENE 7 9 4 5 1020.5 - 0.0
30/07:30pm 17.1 13.2 -4.8 22 8.8 ENE 7 9 4 5 1020.4 1019.6 0.0
30/07:00pm 17.9 13.6 -5.3 20 9.3 ENE 9 11 5 6 1019.8 - 0.0
30/06:30pm 19.4 15.6 -5.5 18 10.1 ENE 6 7 3 4 1019.5 1018.8 0.0
30/06:00pm 22.3 17.9 -5.6 15 11.6 E 9 11 5 6 1019.3 1018.5 0.0
30/05:30pm 24.1 19.2 -7.0 12 12.8 ENE 11 17 6 9 1019.1 1018.3 0.0
30/05:00pm 24.5 19.3 -6.7 12 13.0 E 13 22 7 12 1019.1 - 0.0
30/04:30pm 25.0 20.6 -6.3 12 13.2 ESE 9 15 5 8 1019.1 1018.3 0.0
30/04:00pm 25.1 19.5 -6.3 12 13.2 E 15 22 8 12 1019.3 - 0.0

Other Formats:

Comma delimited format used in spreadsheet applications
http://www.bom.gov.au/fwo/IDD60801/IDD60801.94328.axf

JavaScript Object Notation format (JSON) in row-major order
http://www.bom.gov.au/fwo/IDD60801/IDD60801.94328.json